Grove, New Jersey
Current Conditions -  °F | °C
As of 5:53 PM on Monday 22 Dec 2014 (Local Time) from KCDW Reporting Station
Light Rain Light Rain  
Wind Chill: 40°   Ceiling: 700
Heat Index: 40°   Visibility: 2mi
Dew Point: 31°   Wind: 0mph
Humidity: 70%   Direction: NA
Pressure: 30.23"   Gusts: NA
Location:  40.8099°N, 74.187°W
Report Text: KCDW 222253Z AUTO 00000KT 2SM -RA OVC007 04/M01 A3023 RMK AO2 SLP244 P0001 T00441006 TSNO
Loading
Personal Weather Stations






























Interactive Weather Map New forecast layout! Learn more

10-Day Weather Forecast

Advertisements
Track Severe Weather on mobile